createdAt,value
2017-11-03T00:03:47.635Z,26.50
2017-11-03T00:08:51.041Z,25.17
2017-11-03T00:13:57.438Z,24.97
2017-11-03T00:19:00.432Z,25.63
2017-11-03T00:24:06.359Z,24.83
2017-11-03T00:29:08.947Z,24.37
2017-11-03T00:34:13.190Z,24.43
2017-11-03T00:39:15.867Z,23.70
2017-11-03T00:44:19.362Z,23.17
2017-11-03T00:49:22.748Z,23.03
2017-11-03T00:54:25.841Z,22.40
2017-11-03T00:59:28.505Z,22.73
2017-11-03T01:04:31.611Z,22.40
2017-11-03T01:09:35.003Z,21.40
2017-11-03T01:14:38.496Z,21.30
2017-11-03T01:19:41.148Z,20.20
2017-11-03T01:24:45.401Z,18.73
2017-11-03T01:29:48.182Z,17.27
2017-11-03T01:34:51.937Z,13.23
2017-11-03T01:39:54.556Z,14.87
2017-11-03T01:44:58.120Z,12.43
2017-11-03T01:50:01.542Z,12.57
2017-11-03T01:55:04.305Z,12.57
2017-11-03T02:00:06.907Z,14.13
2017-11-03T02:05:09.866Z,15.50
2017-11-03T02:10:12.441Z,16.00
2017-11-03T02:15:16.609Z,17.03
2017-11-03T02:20:19.319Z,18.43
2017-11-03T02:25:22.395Z,19.23
2017-11-03T02:30:25.980Z,19.10
2017-11-03T02:35:28.955Z,16.77
2017-11-03T02:40:31.655Z,15.87
2017-11-03T02:45:34.837Z,15.60
2017-11-03T02:50:37.539Z,18.10
2017-11-03T02:55:40.951Z,19.13
2017-11-03T03:00:44.461Z,17.37
2017-11-03T03:05:48.272Z,17.10
2017-11-03T03:10:50.906Z,19.03
2017-11-03T03:15:54.376Z,19.07
2017-11-03T03:20:56.994Z,18.07
2017-11-03T03:25:59.630Z,21.03
2017-11-03T03:31:02.269Z,21.77
2017-11-03T03:36:04.941Z,21.87
2017-11-03T03:41:07.566Z,22.27
2017-11-03T03:46:10.938Z,21.73
2017-11-03T03:51:13.564Z,21.90
2017-11-03T03:56:16.348Z,22.40
2017-11-03T04:01:18.976Z,20.00
2017-11-03T04:06:22.406Z,17.17
2017-11-03T04:11:25.021Z,17.07
2017-11-03T04:16:28.357Z,17.73
2017-11-03T04:21:30.989Z,18.70
2017-11-03T04:26:33.729Z,18.40
2017-11-03T04:31:37.115Z,19.07
2017-11-03T04:36:40.576Z,17.97
2017-11-03T04:41:43.968Z,19.40
2017-11-03T04:46:47.157Z,18.17
2017-11-03T04:51:49.784Z,17.63
2017-11-03T04:56:54.842Z,15.87
2017-11-03T05:01:57.450Z,15.00
2017-11-03T05:07:00.721Z,14.73
2017-11-03T05:12:03.318Z,14.07
2017-11-03T05:17:06.090Z,14.53
2017-11-03T05:22:08.720Z,12.00
2017-11-03T05:27:11.701Z,11.57
2017-11-03T05:32:14.336Z,11.80
2017-11-03T05:37:17.720Z,11.57
2017-11-03T05:42:20.304Z,11.33
2017-11-03T05:47:24.442Z,11.60
2017-11-03T05:52:27.067Z,12.97
2017-11-03T05:57:29.940Z,14.00
2017-11-03T06:02:33.383Z,13.77
2017-11-03T06:07:36.701Z,15.27
2017-11-03T06:12:39.323Z,15.50
2017-11-03T06:17:42.790Z,15.27
2017-11-03T06:22:46.173Z,16.50
2017-11-03T06:27:49.329Z,15.07
2017-11-03T06:32:51.954Z,15.73
2017-11-03T06:37:54.744Z,16.50
2017-11-03T06:42:57.357Z,17.07
2017-11-03T06:48:00.231Z,16.60
2017-11-03T06:53:02.860Z,16.67
2017-11-03T06:58:05.531Z,17.70
2017-11-03T07:03:08.155Z,18.70
2017-11-03T07:08:11.236Z,18.30
2017-11-03T07:13:13.805Z,19.20
2017-11-03T07:18:16.422Z,19.53
2017-11-03T07:23:19.811Z,19.40
2017-11-03T07:28:22.877Z,20.97
2017-11-03T07:33:25.464Z,19.93
2017-11-03T07:38:28.687Z,19.97
2017-11-03T07:43:31.338Z,20.03
2017-11-03T07:48:35.275Z,19.70
2017-11-03T07:53:38.661Z,20.37
2017-11-03T07:58:41.921Z,20.10
2017-11-03T08:03:44.529Z,18.60
2017-11-03T08:08:47.153Z,25.03
2017-11-03T08:13:49.763Z,21.17
2017-11-03T08:18:52.740Z,19.80
2017-11-03T08:23:55.390Z,17.57
2017-11-03T08:28:58.683Z,18.47
2017-11-03T08:34:01.307Z,15.77
2017-11-03T08:39:04.133Z,17.00
2017-11-03T08:44:07.546Z,19.00
2017-11-03T08:49:13.371Z,18.40
2017-11-03T08:54:16.003Z,14.37
2017-11-03T08:59:18.862Z,14.67
2017-11-03T09:04:21.487Z,12.73
2017-11-03T09:09:24.260Z,12.60
2017-11-03T09:14:26.844Z,12.50
2017-11-03T09:19:29.682Z,11.97
2017-11-03T09:24:32.325Z,10.67
2017-11-03T09:29:35.755Z,10.13
2017-11-03T09:34:38.350Z,10.43
2017-11-03T09:39:41.020Z,25.60
2017-11-03T09:44:43.643Z,10.77
2017-11-03T09:49:47.214Z,9.13
2017-11-03T09:54:49.861Z,10.90
2017-11-03T09:59:53.467Z,9.40
2017-11-03T10:04:56.868Z,10.20
2017-11-03T10:09:59.869Z,9.10
2017-11-03T10:15:02.504Z,8.87
2017-11-03T10:20:06.342Z,8.77
2017-11-03T10:25:08.944Z,9.93
2017-11-03T10:30:11.652Z,7.47
2017-11-03T10:35:14.273Z,8.50
2017-11-03T10:40:17.165Z,9.53
2017-11-03T10:45:19.834Z,9.43
2017-11-03T10:50:24.003Z,10.40
2017-11-03T10:55:26.594Z,9.00
2017-11-03T11:00:29.567Z,8.00
2017-11-03T11:05:32.962Z,7.17
2017-11-03T11:10:36.516Z,8.03
2017-11-03T11:15:39.183Z,8.43
2017-11-03T11:20:41.789Z,8.60
2017-11-03T11:25:44.392Z,7.33
2017-11-03T11:30:48.372Z,7.57
2017-11-03T11:35:50.996Z,7.47
2017-11-03T11:40:53.771Z,7.57
2017-11-03T11:45:56.408Z,6.17
2017-11-03T11:50:59.302Z,6.60
2017-11-03T11:56:01.885Z,6.93
2017-11-03T12:01:05.104Z,6.83
2017-11-03T12:06:07.687Z,6.53
2017-11-03T12:11:11.064Z,7.10
2017-11-03T12:16:14.463Z,7.90
2017-11-03T12:21:18.042Z,7.53
2017-11-03T12:26:20.744Z,6.83
2017-11-03T12:31:24.318Z,15.50
2017-11-03T12:36:27.702Z,6.40
2017-11-03T12:41:30.371Z,4.73
2017-11-03T12:46:32.995Z,5.67
2017-11-03T12:51:35.647Z,5.70
2017-11-03T12:56:38.338Z,5.50
2017-11-03T13:01:41.810Z,5.67
2017-11-03T13:06:44.432Z,5.13
2017-11-03T13:11:47.399Z,6.17
2017-11-03T13:16:49.996Z,5.87
2017-11-03T13:21:53.455Z,6.00
2017-11-03T13:26:57.187Z,5.83
2017-11-03T13:32:01.187Z,5.27
2017-11-03T13:37:03.817Z,5.43
2017-11-03T13:42:07.952Z,5.63
2017-11-03T13:47:11.346Z,5.60
2017-11-03T13:52:14.251Z,5.73
2017-11-03T13:57:16.840Z,5.20
2017-11-03T14:02:20.429Z,5.33
2017-11-03T14:07:23.107Z,5.17
2017-11-03T14:12:26.300Z,4.30
2017-11-03T14:17:29.680Z,4.20
2017-11-03T14:22:32.560Z,4.27
2017-11-03T14:27:35.240Z,5.03
2017-11-03T14:32:38.409Z,5.07
2017-11-03T14:37:41.029Z,5.23
2017-11-03T14:42:43.984Z,8.30
2017-11-03T14:47:46.593Z,4.77
2017-11-03T14:52:49.347Z,5.03
2017-11-03T14:57:52.726Z,4.80
2017-11-03T15:02:55.609Z,5.03
2017-11-03T15:07:58.261Z,5.00
2017-11-03T15:13:02.203Z,4.77
2017-11-03T15:18:05.583Z,6.87
2017-11-03T15:23:08.429Z,6.87
2017-11-03T15:28:11.012Z,5.93
2017-11-03T15:33:14.829Z,7.93
2017-11-03T15:38:17.450Z,6.73
2017-11-03T15:43:20.277Z,6.20
2017-11-03T15:48:23.266Z,7.20
2017-11-03T15:53:26.267Z,6.43
2017-11-03T15:58:29.305Z,6.73
2017-11-03T16:03:33.006Z,6.53
2017-11-03T16:08:35.697Z,6.70
2017-11-03T16:13:38.345Z,7.47
2017-11-03T16:18:40.989Z,7.23
2017-11-03T16:23:45.007Z,13.80
2017-11-03T16:28:48.352Z,16.80
2017-11-03T16:33:51.810Z,11.50
2017-11-03T16:38:54.400Z,11.53
2017-11-03T16:43:57.441Z,11.57
2017-11-03T16:49:00.037Z,11.90
2017-11-03T16:54:02.891Z,9.83
2017-11-03T16:59:05.531Z,9.57
2017-11-03T17:04:09.179Z,10.63
2017-11-03T17:09:12.731Z,16.23
2017-11-03T17:14:15.528Z,16.10
2017-11-03T17:19:18.115Z,16.43
2017-11-03T17:24:21.119Z,18.23
2017-11-03T17:29:24.125Z,14.07
2017-11-03T17:34:28.156Z,15.20
2017-11-03T17:39:30.820Z,43.03
2017-11-03T17:44:33.793Z,13.13
2017-11-03T17:49:36.565Z,13.70
2017-11-03T17:54:42.563Z,15.80
2017-11-03T17:59:45.187Z,13.27
2017-11-03T18:04:48.768Z,13.70
2017-11-03T18:09:51.377Z,13.07
2017-11-03T18:14:54.571Z,14.80
2017-11-03T18:19:57.239Z,14.83
2017-11-03T18:24:59.978Z,15.40
2017-11-03T18:30:02.708Z,13.77
2017-11-03T18:35:06.120Z,14.87
2017-11-03T18:40:09.200Z,12.93
2017-11-03T18:45:18.555Z,14.33
2017-11-03T18:50:21.155Z,14.20
2017-11-03T18:55:24.623Z,14.37
2017-11-03T19:00:27.380Z,12.77
2017-11-03T19:05:33.248Z,13.03
2017-11-03T19:10:36.760Z,14.30
2017-11-03T19:15:39.815Z,15.47
2017-11-03T19:20:42.424Z,14.47
2017-11-03T19:25:45.403Z,15.37
2017-11-03T19:30:48.237Z,15.00
2017-11-03T19:35:51.760Z,17.20
2017-11-03T19:40:54.409Z,15.47
2017-11-03T19:45:57.207Z,15.03
2017-11-03T19:51:00.040Z,16.50
2017-11-03T19:56:03.361Z,17.33
2017-11-03T20:01:06.093Z,15.93
2017-11-03T20:06:11.085Z,14.37
2017-11-03T20:11:14.251Z,14.43
2017-11-03T20:16:17.926Z,15.30
2017-11-03T20:21:35.962Z,52.13
2017-11-03T20:26:39.776Z,14.17
2017-11-03T20:31:42.512Z,15.27
2017-11-03T20:36:45.711Z,15.23
2017-11-03T20:41:48.556Z,16.63
2017-11-03T20:46:51.522Z,17.20
2017-11-03T20:51:55.148Z,17.83
2017-11-03T20:56:58.672Z,17.73
2017-11-03T21:02:01.368Z,17.23
2017-11-03T21:07:04.887Z,17.87
2017-11-03T21:12:07.559Z,18.00
2017-11-03T21:17:10.339Z,18.30
2017-11-03T21:22:12.975Z,17.70
2017-11-03T21:27:17.084Z,18.90
2017-11-03T21:32:19.833Z,17.47
2017-11-03T21:37:22.707Z,18.70
2017-11-03T21:42:26.133Z,17.23
2017-11-03T21:47:29.127Z,16.87
2017-11-03T21:52:32.681Z,19.00
2017-11-03T21:57:35.430Z,18.43
2017-11-03T22:02:38.054Z,18.67
2017-11-03T22:07:42.399Z,19.87
2017-11-03T22:12:45.025Z,18.57
2017-11-03T22:17:47.921Z,18.27
2017-11-03T22:22:50.667Z,18.10
2017-11-03T22:27:53.839Z,22.03
2017-11-03T22:32:56.497Z,19.90
2017-11-03T22:37:59.326Z,21.20
2017-11-03T22:43:02.778Z,25.30
2017-11-03T22:48:06.460Z,23.77
2017-11-03T22:53:10.631Z,21.80
2017-11-03T22:58:14.480Z,22.07
2017-11-03T23:03:17.226Z,21.70
2017-11-03T23:08:26.594Z,21.77
2017-11-03T23:13:29.333Z,21.50
2017-11-03T23:18:32.886Z,20.00
2017-11-03T23:23:36.165Z,21.73
2017-11-03T23:28:40.134Z,20.87
2017-11-03T23:33:42.795Z,19.90
2017-11-03T23:38:46.777Z,20.77
2017-11-03T23:43:53.615Z,20.37
2017-11-03T23:48:58.947Z,22.47
2017-11-03T23:54:01.978Z,21.37
2017-11-03T23:59:06.408Z,20.50
